Juniata, Nebraska
Current Conditions -  °F | °C
As of 12:53 AM on Wednesday 22 Oct 2014 (Local Time) from KHSI Reporting Station
Clear Clear  
Wind Chill: 60°   Ceiling: Unl
Heat Index: 60°   Visibility: 10mi
Dew Point: 50°   Wind: 13mph
Humidity: 69%   Direction: 160°SSE
Pressure: 29.97"   Gusts: NA
Location:  40.59°N, 98.51°W
Report Text: KHSI 220553Z AUTO 16011KT 10SM CLR 16/10 A2997 RMK AO2 SLP138 T01560100 10206 20156 402440078 56004
Loading
Personal Weather Stations






























Interactive Weather Map New forecast layout! Learn more

10-Day Weather Forecast

Advertisements
Track Severe Weather on mobile